Aviation Digital Data Service (ADDS)

Output produced by METARs form (1202 UTC 16 July 2019)
found at http://www.aviationweather.gov/metar/data/
 
METAR text: OPLA 161129Z 12010KT 2500 TSRA FEW030CB SCT040 OVC100 23/23 Q1001 RMK QFE976 RMK A29.58
Conditions at: OPLA (LAHORE (CIV/MIL), PK) observed 1129 UTC 16 July 2019
Temperature: 23.0°C (73°F)
Dewpoint: 23.0°C (73°F) [RH = 100%]
Pressure (altimeter): 29.56 inches Hg (1001.0 mb)
Winds: from the ESE (120 degrees) at 12 MPH (10 knots; 5.1 m/s)
Visibility: 1.55 miles (2.49 km)
Ceiling: 10000 feet AGL
Clouds: few clouds at 3000 feet AGL
scattered clouds at 4000 feet AGL
overcast cloud deck at 10000 feet AGL
Weather: TSRA  (rain associated with thunderstorm(s))

METAR text: OPLA 161059Z 33012KT 1000 R36/1900U R18/0600D TS SHRA FEW030CB SCT040 BKN100 24/24 Q1002 TEMPO 33020G45KT 2000 TSRA FEW03CB RMK QFE977 RMK A29.58 RMK RMID/0900
Conditions at: OPLA (LAHORE (CIV/MIL), PK) observed 1059 UTC 16 July 2019
Temperature: 24.0°C (75°F)
Dewpoint: 24.0°C (75°F) [RH = 100%]
Pressure (altimeter): 29.59 inches Hg (1002.0 mb)
Winds: from the NNW (330 degrees) at 14 MPH (12 knots; 6.2 m/s)
Visibility: 0.62 miles (1.00 km)
Ceiling: 10000 feet AGL
Clouds: few clouds at 3000 feet AGL
scattered clouds at 4000 feet AGL
broken clouds at 10000 feet AGL
Weather: SHRA TS  (rain showers, thunderstorm)

METAR text: OPLA 161030Z 05009KT 3000 TSRA FEW030CB SCT040 OVC100 26/26 Q1002 RMK QFE976 RMK A29.55
Conditions at: OPLA (LAHORE (CIV/MIL), PK) observed 1030 UTC 16 July 2019
Temperature: 26.0°C (79°F)
Dewpoint: 26.0°C (79°F) [RH = 100%]
Pressure (altimeter): 29.59 inches Hg (1002.0 mb)
Winds: from the NE (50 degrees) at 10 MPH (9 knots; 4.6 m/s)
Visibility: 1.86 miles (2.99 km)
Ceiling: 10000 feet AGL
Clouds: few clouds at 3000 feet AGL
scattered clouds at 4000 feet AGL
overcast cloud deck at 10000 feet AGL
Weather: TSRA  (rain associated with thunderstorm(s))

METAR text: OPLA 160929Z 15014KT 4000 TSRA FEW030CB SCT040 BKN100 27/25 Q1001 RMK QFE976 RMK A29.55
Conditions at: OPLA (LAHORE (CIV/MIL), PK) observed 0929 UTC 16 July 2019
Temperature: 27.0°C (81°F)
Dewpoint: 25.0°C (77°F) [RH = 89%]
Pressure (altimeter): 29.56 inches Hg (1001.0 mb)
Winds: from the SSE (150 degrees) at 16 MPH (14 knots; 7.2 m/s)
Visibility: 2.49 miles (4.01 km)
Ceiling: 10000 feet AGL
Clouds: few clouds at 3000 feet AGL
scattered clouds at 4000 feet AGL
broken clouds at 10000 feet AGL
Weather: TSRA  (rain associated with thunderstorm(s))

METAR text: OPLA 160829Z 12010KT 4000 FU SCT040 SCT100 28/24 Q1001 RMK QFE976 RMK A29.95
Conditions at: OPLA (LAHORE (CIV/MIL), PK) observed 0829 UTC 16 July 2019
Temperature: 28.0°C (82°F)
Dewpoint: 24.0°C (75°F) [RH = 79%]
Pressure (altimeter): 29.56 inches Hg (1001.0 mb)
Winds: from the ESE (120 degrees) at 12 MPH (10 knots; 5.1 m/s)
Visibility: 2.49 miles (4.01 km)
Ceiling: at least 12,000 feet AGL
Clouds: scattered clouds at 4000 feet AGL
scattered clouds at 10000 feet AGL
Weather: FU  (smoke)

METAR text: OPLA 160759Z 12012KT 4000 FU RETSRA SCT040 SCT100 27/24 Q1001 RMK 33020G45KT 2000 TSRA FEW030CB RMK QFE976 RMK A29.55
Conditions at: OPLA (LAHORE (CIV/MIL), PK) observed 0759 UTC 16 July 2019
Temperature: 27.0°C (81°F)
Dewpoint: 24.0°C (75°F) [RH = 84%]
Pressure (altimeter): 29.56 inches Hg (1001.0 mb)
Winds: from the ESE (120 degrees) at 14 MPH (12 knots; 6.2 m/s)
Visibility: 2.49 miles (4.01 km)
Ceiling: at least 12,000 feet AGL
Clouds: scattered clouds at 4000 feet AGL
scattered clouds at 10000 feet AGL
Weather: FU  (smoke)

METAR text: OPLA 160729Z 14010KT 3000 FU RETSRA SCT040 BKN100 27/24 Q1001 RMK TEMPO 33020G45KT 2000 TSRA FEW030CB RMK QFE976 RMK A29.56
Conditions at: OPLA (LAHORE (CIV/MIL), PK) observed 0729 UTC 16 July 2019
Temperature: 27.0°C (81°F)
Dewpoint: 24.0°C (75°F) [RH = 84%]
Pressure (altimeter): 29.56 inches Hg (1001.0 mb)
Winds: from the SE (140 degrees) at 12 MPH (10 knots; 5.1 m/s)
Visibility: 1.86 miles (2.99 km)
Ceiling: 10000 feet AGL
Clouds: scattered clouds at 4000 feet AGL
broken clouds at 10000 feet AGL
Weather: FU  (smoke)

METAR text: OPLA 160659Z 15010KT 2000 TSRA FEW030CB SCT040 BKN100 25/24 Q1001 RMK TEMPO 33030G5KT 2000 TSRA FEW030CB RMK QFE976 RMK A29.56
Conditions at: OPLA (LAHORE (CIV/MIL), PK) observed 0659 UTC 16 July 2019
Temperature: 25.0°C (77°F)
Dewpoint: 24.0°C (75°F) [RH = 94%]
Pressure (altimeter): 29.56 inches Hg (1001.0 mb)
Winds: from the SSE (150 degrees) at 12 MPH (10 knots; 5.1 m/s)
Visibility: 1.24 miles (2.00 km)
Ceiling: 10000 feet AGL
Clouds: few clouds at 3000 feet AGL
scattered clouds at 4000 feet AGL
broken clouds at 10000 feet AGL
Weather: TSRA  (rain associated with thunderstorm(s))

METAR text: OPLA 160559Z 08010KT 3000 TSRA FEW030CB SCT040 BKN100 25/24 Q1001 RMK TEMPO 33020G45KT 2000 TSRA FEW030CB RMK QFE976 RMK A29.55
Conditions at: OPLA (LAHORE (CIV/MIL), PK) observed 0559 UTC 16 July 2019
Temperature: 25.0°C (77°F)
Dewpoint: 24.0°C (75°F) [RH = 94%]
Pressure (altimeter): 29.56 inches Hg (1001.0 mb)
Winds: from the E (80 degrees) at 12 MPH (10 knots; 5.1 m/s)
Visibility: 1.86 miles (2.99 km)
Ceiling: 10000 feet AGL
Clouds: few clouds at 3000 feet AGL
scattered clouds at 4000 feet AGL
broken clouds at 10000 feet AGL
Weather: TSRA  (rain associated with thunderstorm(s))

METAR text: OPLA 160529Z 34008KT 3000 TSRA FEW030CB SCT040 BKN100 24/23 Q1002 RMK TEMPO 33020G45KT 2000 TSRA FEW030CB RMK QFE976 RMK A29.54
Conditions at: OPLA (LAHORE (CIV/MIL), PK) observed 0529 UTC 16 July 2019
Temperature: 24.0°C (75°F)
Dewpoint: 23.0°C (73°F) [RH = 94%]
Pressure (altimeter): 29.59 inches Hg (1002.0 mb)
Winds: from the NNW (340 degrees) at 9 MPH (8 knots; 4.1 m/s)
Visibility: 1.86 miles (2.99 km)
Ceiling: 10000 feet AGL
Clouds: few clouds at 3000 feet AGL
scattered clouds at 4000 feet AGL
broken clouds at 10000 feet AGL
Weather: TSRA  (rain associated with thunderstorm(s))

METAR text: OPLA 160459Z 06008KT 4000 RA SCT040 BKN100 24/23 Q1001 RMK TEMPO 33020G45KT 2000 TSRA FEW030CB RMK QFE975 RMK A29.54
Conditions at: OPLA (LAHORE (CIV/MIL), PK) observed 0459 UTC 16 July 2019
Temperature: 24.0°C (75°F)
Dewpoint: 23.0°C (73°F) [RH = 94%]
Pressure (altimeter): 29.56 inches Hg (1001.0 mb)
Winds: from the ENE (60 degrees) at 9 MPH (8 knots; 4.1 m/s)
Visibility: 2.49 miles (4.01 km)
Ceiling: 10000 feet AGL
Clouds: scattered clouds at 4000 feet AGL
broken clouds at 10000 feet AGL
Weather: RA  (moderate rain)

METAR text: OPLA 160429Z 12008KT 4000 FU SCT040 BKN100 24/23 Q1000 RMK QFE975 RMK A29.52
Conditions at: OPLA (LAHORE (CIV/MIL), PK) observed 0429 UTC 16 July 2019
Temperature: 24.0°C (75°F)
Dewpoint: 23.0°C (73°F) [RH = 94%]
Pressure (altimeter): 29.53 inches Hg (1000.0 mb)
Winds: from the ESE (120 degrees) at 9 MPH (8 knots; 4.1 m/s)
Visibility: 2.49 miles (4.01 km)
Ceiling: 10000 feet AGL
Clouds: scattered clouds at 4000 feet AGL
broken clouds at 10000 feet AGL
Weather: FU  (smoke)

METAR text: OPLA 160355Z 12010KT 4000 FU RETSRA SCT040 BKN100 24/23 Q1000 RMK TEMPO 33020G45KT 2000 TSRA FEW030CB RMK QFE975 RMK A29.52
Conditions at: OPLA (LAHORE (CIV/MIL), PK) observed 0355 UTC 16 July 2019
Temperature: 24.0°C (75°F)
Dewpoint: 23.0°C (73°F) [RH = 94%]
Pressure (altimeter): 29.53 inches Hg (1000.0 mb)
Winds: from the ESE (120 degrees) at 12 MPH (10 knots; 5.1 m/s)
Visibility: 2.49 miles (4.01 km)
Ceiling: 10000 feet AGL
Clouds: scattered clouds at 4000 feet AGL
broken clouds at 10000 feet AGL
Weather: FU  (smoke)

METAR text: OPLA 160345Z 12010KT 4000 FU RETSRA SCT040 BKN100 24/23 Q1000 RMK TEMPO 33020G45KT 2000 TSRA FEW030CB RMK QFE975 RMK A29.52
Conditions at: OPLA (LAHORE (CIV/MIL), PK) observed 0345 UTC 16 July 2019
Temperature: 24.0°C (75°F)
Dewpoint: 23.0°C (73°F) [RH = 94%]
Pressure (altimeter): 29.53 inches Hg (1000.0 mb)
Winds: from the ESE (120 degrees) at 12 MPH (10 knots; 5.1 m/s)
Visibility: 2.49 miles (4.01 km)
Ceiling: 10000 feet AGL
Clouds: scattered clouds at 4000 feet AGL
broken clouds at 10000 feet AGL
Weather: FU  (smoke)

METAR text: OPLA 160255Z 15013KT 3000 -TSRA FEW030CB SCT040 OVC100 24/23 Q0999 TEMPO 33020G40KT 2000 TSRA FEW030CB RMK QFE974 RMK A29.51
Conditions at: OPLA (LAHORE (CIV/MIL), PK) observed 0255 UTC 16 July 2019
Temperature: 24.0°C (75°F)
Dewpoint: 23.0°C (73°F) [RH = 94%]
Pressure (altimeter): 29.50 inches Hg (999.0 mb)
Winds: from the SSE (150 degrees) at 15 MPH (13 knots; 6.7 m/s)
Visibility: 1.86 miles (2.99 km)
Ceiling: 10000 feet AGL
Clouds: few clouds at 3000 feet AGL
scattered clouds at 4000 feet AGL
overcast cloud deck at 10000 feet AGL
Weather: -TSRA  (light rain associated with thunderstorm(s))

METAR text: OPLA 160225Z 13011KT 3000 TSRA FEW030CB SCT040 OVC100 24/23 Q0999 RMK QFE974 RMK A29.48
Conditions at: OPLA (LAHORE (CIV/MIL), PK) observed 0225 UTC 16 July 2019
Temperature: 24.0°C (75°F)
Dewpoint: 23.0°C (73°F) [RH = 94%]
Pressure (altimeter): 29.50 inches Hg (999.0 mb)
Winds: from the SE (130 degrees) at 13 MPH (11 knots; 5.7 m/s)
Visibility: 1.86 miles (2.99 km)
Ceiling: 10000 feet AGL
Clouds: few clouds at 3000 feet AGL
scattered clouds at 4000 feet AGL
overcast cloud deck at 10000 feet AGL
Weather: TSRA  (rain associated with thunderstorm(s))

METAR text: OPLA 160155Z 12010KT 3000 TSRA FEW030CB SCT040 OVC100 24/23 Q0999 TEMPO 33020G40KT 2000 TSRA FEW030CB RMK QFE973 RMK A29.48
Conditions at: OPLA (LAHORE (CIV/MIL), PK) observed 0155 UTC 16 July 2019
Temperature: 24.0°C (75°F)
Dewpoint: 23.0°C (73°F) [RH = 94%]
Pressure (altimeter): 29.50 inches Hg (999.0 mb)
Winds: from the ESE (120 degrees) at 12 MPH (10 knots; 5.1 m/s)
Visibility: 1.86 miles (2.99 km)
Ceiling: 10000 feet AGL
Clouds: few clouds at 3000 feet AGL
scattered clouds at 4000 feet AGL
overcast cloud deck at 10000 feet AGL
Weather: TSRA  (rain associated with thunderstorm(s))

METAR text: OPLA 160125Z 21009KT 2000 TSRA FEW030CB SCT040 OVC100 24/23 Q0999 RMK QFE974 RMK A29.47
Conditions at: OPLA (LAHORE (CIV/MIL), PK) observed 0125 UTC 16 July 2019
Temperature: 24.0°C (75°F)
Dewpoint: 23.0°C (73°F) [RH = 94%]
Pressure (altimeter): 29.50 inches Hg (999.0 mb)
Winds: from the SSW (210 degrees) at 10 MPH (9 knots; 4.6 m/s)
Visibility: 1.24 miles (2.00 km)
Ceiling: 10000 feet AGL
Clouds: few clouds at 3000 feet AGL
scattered clouds at 4000 feet AGL
overcast cloud deck at 10000 feet AGL
Weather: TSRA  (rain associated with thunderstorm(s))

METAR text: OPLA 160055Z 16016KT 3000 TSRA FEW030CB SCT040 OVC100 24/23 Q0997 TEMPO 33020G40KT 2000 TSRA FEW030CB RMK QFE972 RMK A29.44
Conditions at: OPLA (LAHORE (CIV/MIL), PK) observed 0055 UTC 16 July 2019
Temperature: 24.0°C (75°F)
Dewpoint: 23.0°C (73°F) [RH = 94%]
Pressure (altimeter): 29.44 inches Hg (997.0 mb)
Winds: from the SSE (160 degrees) at 18 MPH (16 knots; 8.2 m/s)
Visibility: 1.86 miles (2.99 km)
Ceiling: 10000 feet AGL
Clouds: few clouds at 3000 feet AGL
scattered clouds at 4000 feet AGL
overcast cloud deck at 10000 feet AGL
Weather: TSRA  (rain associated with thunderstorm(s))

METAR text: OPLA 160025Z 16011KT 3000 TSRA FEW030CB SCT040 OVC100 25/24 Q0997 RMK QFE972 RMK A29.44
Conditions at: OPLA (LAHORE (CIV/MIL), PK) observed 0025 UTC 16 July 2019
Temperature: 25.0°C (77°F)
Dewpoint: 24.0°C (75°F) [RH = 94%]
Pressure (altimeter): 29.44 inches Hg (997.0 mb)
Winds: from the SSE (160 degrees) at 13 MPH (11 knots; 5.7 m/s)
Visibility: 1.86 miles (2.99 km)
Ceiling: 10000 feet AGL
Clouds: few clouds at 3000 feet AGL
scattered clouds at 4000 feet AGL
overcast cloud deck at 10000 feet AGL
Weather: TSRA  (rain associated with thunderstorm(s))

METAR text: OPLA 152355Z 17015KT 3000 TSRA FEW030CB SCT040 OVC100 25/24 Q0997 TEMPO 33020G40KT 2000 TSRA FEW030CB RMK QFE972 RMK A29.44
Conditions at: OPLA (LAHORE (CIV/MIL), PK) observed 2355 UTC 15 July 2019
Temperature: 25.0°C (77°F)
Dewpoint: 24.0°C (75°F) [RH = 94%]
Pressure (altimeter): 29.44 inches Hg (997.0 mb)
Winds: from the S (170 degrees) at 17 MPH (15 knots; 7.7 m/s)
Visibility: 1.86 miles (2.99 km)
Ceiling: 10000 feet AGL
Clouds: few clouds at 3000 feet AGL
scattered clouds at 4000 feet AGL
overcast cloud deck at 10000 feet AGL
Weather: TSRA  (rain associated with thunderstorm(s))

METAR text: OPLA 152325Z 32009KT 3000 -TSRA FEW030CB SCT040 OVC100 25/24 Q0997 RMK QFE971 RMK A29.43
Conditions at: OPLA (LAHORE (CIV/MIL), PK) observed 2325 UTC 15 July 2019
Temperature: 25.0°C (77°F)
Dewpoint: 24.0°C (75°F) [RH = 94%]
Pressure (altimeter): 29.44 inches Hg (997.0 mb)
Winds: from the NW (320 degrees) at 10 MPH (9 knots; 4.6 m/s)
Visibility: 1.86 miles (2.99 km)
Ceiling: 10000 feet AGL
Clouds: few clouds at 3000 feet AGL
scattered clouds at 4000 feet AGL
overcast cloud deck at 10000 feet AGL
Weather: -TSRA  (light rain associated with thunderstorm(s))

METAR text: OPLA 152255Z 36012KT 3000 TSRA FEW030CB SCT040 OVC100 25/24 Q0997 TEMPO 33020G40KT 2000 TSRA FEW030CB RMK QFE971 RMK A29.43
Conditions at: OPLA (LAHORE (CIV/MIL), PK) observed 2255 UTC 15 July 2019
Temperature: 25.0°C (77°F)
Dewpoint: 24.0°C (75°F) [RH = 94%]
Pressure (altimeter): 29.44 inches Hg (997.0 mb)
Winds: from the N (360 degrees) at 14 MPH (12 knots; 6.2 m/s)
Visibility: 1.86 miles (2.99 km)
Ceiling: 10000 feet AGL
Clouds: few clouds at 3000 feet AGL
scattered clouds at 4000 feet AGL
overcast cloud deck at 10000 feet AGL
Weather: TSRA  (rain associated with thunderstorm(s))

METAR text: OPLA 152225Z 09015KT 3000 TSRA FEW030CB BKN040 OVC100 25/24 Q0997 RMK QFE971 RMK A29.42
Conditions at: OPLA (LAHORE (CIV/MIL), PK) observed 2225 UTC 15 July 2019
Temperature: 25.0°C (77°F)
Dewpoint: 24.0°C (75°F) [RH = 94%]
Pressure (altimeter): 29.44 inches Hg (997.0 mb)
Winds: from the E (90 degrees) at 17 MPH (15 knots; 7.7 m/s)
Visibility: 1.86 miles (2.99 km)
Ceiling: 4000 feet AGL
Clouds: few clouds at 3000 feet AGL
broken clouds at 4000 feet AGL
overcast cloud deck at 10000 feet AGL
Weather: TSRA  (rain associated with thunderstorm(s))

METAR text: OPLA 152155Z 13015KT 4000 VCTS FEW030CB SCT040 BKN100 27/23 Q0997 TEMPO 33020G40KT 2000 TSRA FEW030CB RMK QFE971 RMK A29.42
Conditions at: OPLA (LAHORE (CIV/MIL), PK) observed 2155 UTC 15 July 2019
Temperature: 27.0°C (81°F)
Dewpoint: 23.0°C (73°F) [RH = 79%]
Pressure (altimeter): 29.44 inches Hg (997.0 mb)
Winds: from the SE (130 degrees) at 17 MPH (15 knots; 7.7 m/s)
Visibility: 2.49 miles (4.01 km)
Ceiling: 10000 feet AGL
Clouds: few clouds at 3000 feet AGL
scattered clouds at 4000 feet AGL
broken clouds at 10000 feet AGL
Weather: VCTS  (thunderstorm in vicinity)

METAR text: OPLA 152129Z 09013KT 4000 FU SCT040 BKN100 27/23 Q0997 RMK QFE971 RMK A29.42
Conditions at: OPLA (LAHORE (CIV/MIL), PK) observed 2129 UTC 15 July 2019
Temperature: 27.0°C (81°F)
Dewpoint: 23.0°C (73°F) [RH = 79%]
Pressure (altimeter): 29.44 inches Hg (997.0 mb)
Winds: from the E (90 degrees) at 15 MPH (13 knots; 6.7 m/s)
Visibility: 2.49 miles (4.01 km)
Ceiling: 10000 feet AGL
Clouds: scattered clouds at 4000 feet AGL
broken clouds at 10000 feet AGL
Weather: FU  (smoke)

METAR text: OPLA 152029Z 13012KT 4000 FU SCT040 BKN100 27/23 Q0997 RMK QFE972 RMK A29.45
Conditions at: OPLA (LAHORE (CIV/MIL), PK) observed 2029 UTC 15 July 2019
Temperature: 27.0°C (81°F)
Dewpoint: 23.0°C (73°F) [RH = 79%]
Pressure (altimeter): 29.44 inches Hg (997.0 mb)
Winds: from the SE (130 degrees) at 14 MPH (12 knots; 6.2 m/s)
Visibility: 2.49 miles (4.01 km)
Ceiling: 10000 feet AGL
Clouds: scattered clouds at 4000 feet AGL
broken clouds at 10000 feet AGL
Weather: FU  (smoke)

METAR text: OPLA 151959Z 12015KT 4000 FU SCT040 BKN100 27/23 Q0997 TEMPO 33020G40KT 2000 TSRA FEW030CB RMK QFE972 RMK A29.45
Conditions at: OPLA (LAHORE (CIV/MIL), PK) observed 1959 UTC 15 July 2019
Temperature: 27.0°C (81°F)
Dewpoint: 23.0°C (73°F) [RH = 79%]
Pressure (altimeter): 29.44 inches Hg (997.0 mb)
Winds: from the ESE (120 degrees) at 17 MPH (15 knots; 7.7 m/s)
Visibility: 2.49 miles (4.01 km)
Ceiling: 10000 feet AGL
Clouds: scattered clouds at 4000 feet AGL
broken clouds at 10000 feet AGL
Weather: FU  (smoke)

METAR text: OPLA 151929Z 15013KT 4000 FU SCT040 BKN100 27/23 Q0998 RMK QFE973 RMK A29.47
Conditions at: OPLA (LAHORE (CIV/MIL), PK) observed 1929 UTC 15 July 2019
Temperature: 27.0°C (81°F)
Dewpoint: 23.0°C (73°F) [RH = 79%]
Pressure (altimeter): 29.47 inches Hg (998.0 mb)
Winds: from the SSE (150 degrees) at 15 MPH (13 knots; 6.7 m/s)
Visibility: 2.49 miles (4.01 km)
Ceiling: 10000 feet AGL
Clouds: scattered clouds at 4000 feet AGL
broken clouds at 10000 feet AGL
Weather: FU  (smoke)

METAR text: OPLA 151855Z 14016KT 4000 FU SCT040 BKN100 27/23 Q0998 TEMPO 33020G40KT 2000 TSRA FEW030CB RMK QFE972 RMK A29.47
Conditions at: OPLA (LAHORE (CIV/MIL), PK) observed 1855 UTC 15 July 2019
Temperature: 27.0°C (81°F)
Dewpoint: 23.0°C (73°F) [RH = 79%]
Pressure (altimeter): 29.47 inches Hg (998.0 mb)
Winds: from the SE (140 degrees) at 18 MPH (16 knots; 8.2 m/s)
Visibility: 2.49 miles (4.01 km)
Ceiling: 10000 feet AGL
Clouds: scattered clouds at 4000 feet AGL
broken clouds at 10000 feet AGL
Weather: FU  (smoke)

METAR text: OPLA 151825Z 12014KT 4000 FU SCT040 BKN100 28/22 Q0998 RMK QFE973 RMK A29.47
Conditions at: OPLA (LAHORE (CIV/MIL), PK) observed 1825 UTC 15 July 2019
Temperature: 28.0°C (82°F)
Dewpoint: 22.0°C (72°F) [RH = 70%]
Pressure (altimeter): 29.47 inches Hg (998.0 mb)
Winds: from the ESE (120 degrees) at 16 MPH (14 knots; 7.2 m/s)
Visibility: 2.49 miles (4.01 km)
Ceiling: 10000 feet AGL
Clouds: scattered clouds at 4000 feet AGL
broken clouds at 10000 feet AGL
Weather: FU  (smoke)

METAR text: OPLA 151755Z 16012KT 4000 FU SCT040 BKN100 28/22 Q0998 TEMPO 33020G45KT 2000 TSRA FEW030CB RMK QFE973 RMK A29.47
Conditions at: OPLA (LAHORE (CIV/MIL), PK) observed 1755 UTC 15 July 2019
Temperature: 28.0°C (82°F)
Dewpoint: 22.0°C (72°F) [RH = 70%]
Pressure (altimeter): 29.47 inches Hg (998.0 mb)
Winds: from the SSE (160 degrees) at 14 MPH (12 knots; 6.2 m/s)
Visibility: 2.49 miles (4.01 km)
Ceiling: 10000 feet AGL
Clouds: scattered clouds at 4000 feet AGL
broken clouds at 10000 feet AGL
Weather: FU  (smoke)

METAR text: OPLA 151725Z 09010KT 4000 FU SCT040 BKN100 28/22 Q0998 RMK QFE973 RMK A29.46
Conditions at: OPLA (LAHORE (CIV/MIL), PK) observed 1725 UTC 15 July 2019
Temperature: 28.0°C (82°F)
Dewpoint: 22.0°C (72°F) [RH = 70%]
Pressure (altimeter): 29.47 inches Hg (998.0 mb)
Winds: from the E (90 degrees) at 12 MPH (10 knots; 5.1 m/s)
Visibility: 2.49 miles (4.01 km)
Ceiling: 10000 feet AGL
Clouds: scattered clouds at 4000 feet AGL
broken clouds at 10000 feet AGL
Weather: FU  (smoke)

METAR text: OPLA 151655Z 08011KT 4000 FU SCT040 BKN100 28/22 Q0998 TEMPO 33020G45KT 2000 TSRA FEW030CB RMK QFE972 RMK A29.46
Conditions at: OPLA (LAHORE (CIV/MIL), PK) observed 1655 UTC 15 July 2019
Temperature: 28.0°C (82°F)
Dewpoint: 22.0°C (72°F) [RH = 70%]
Pressure (altimeter): 29.47 inches Hg (998.0 mb)
Winds: from the E (80 degrees) at 13 MPH (11 knots; 5.7 m/s)
Visibility: 2.49 miles (4.01 km)
Ceiling: 10000 feet AGL
Clouds: scattered clouds at 4000 feet AGL
broken clouds at 10000 feet AGL
Weather: FU  (smoke)

METAR text: OPLA 151625Z 12009KT 4000 FU SCT040 BKN100 28/22 Q0997 RMK QFE972 RMK A29.45
Conditions at: OPLA (LAHORE (CIV/MIL), PK) observed 1625 UTC 15 July 2019
Temperature: 28.0°C (82°F)
Dewpoint: 22.0°C (72°F) [RH = 70%]
Pressure (altimeter): 29.44 inches Hg (997.0 mb)
Winds: from the ESE (120 degrees) at 10 MPH (9 knots; 4.6 m/s)
Visibility: 2.49 miles (4.01 km)
Ceiling: 10000 feet AGL
Clouds: scattered clouds at 4000 feet AGL
broken clouds at 10000 feet AGL
Weather: FU  (smoke)

METAR text: OPLA 151555Z 11010KT 4000 FU SCT040 BKN100 28/22 Q0997 TEMPO 33020G45KT 2000 TSRA FEW030CB RMK QFE972 RMK A29.45
Conditions at: OPLA (LAHORE (CIV/MIL), PK) observed 1555 UTC 15 July 2019
Temperature: 28.0°C (82°F)
Dewpoint: 22.0°C (72°F) [RH = 70%]
Pressure (altimeter): 29.44 inches Hg (997.0 mb)
Winds: from the ESE (110 degrees) at 12 MPH (10 knots; 5.1 m/s)
Visibility: 2.49 miles (4.01 km)
Ceiling: 10000 feet AGL
Clouds: scattered clouds at 4000 feet AGL
broken clouds at 10000 feet AGL
Weather: FU  (smoke)

METAR text: OPLA 151525Z 12012KT 4000 FU SCT040 BKN100 28/22 Q0997 RMK QFE972 RMK A29.43
Conditions at: OPLA (LAHORE (CIV/MIL), PK) observed 1525 UTC 15 July 2019
Temperature: 28.0°C (82°F)
Dewpoint: 22.0°C (72°F) [RH = 70%]
Pressure (altimeter): 29.44 inches Hg (997.0 mb)
Winds: from the ESE (120 degrees) at 14 MPH (12 knots; 6.2 m/s)
Visibility: 2.49 miles (4.01 km)
Ceiling: 10000 feet AGL
Clouds: scattered clouds at 4000 feet AGL
broken clouds at 10000 feet AGL
Weather: FU  (smoke)

METAR text: OPLA 151455Z 09010KT 4000 FU SCT040 BKN100 28/22 Q0997 TEMPO 33020G45KT 2000 TSRA FEW030CB RMK QFE971 RMK A29.43
Conditions at: OPLA (LAHORE (CIV/MIL), PK) observed 1455 UTC 15 July 2019
Temperature: 28.0°C (82°F)
Dewpoint: 22.0°C (72°F) [RH = 70%]
Pressure (altimeter): 29.44 inches Hg (997.0 mb)
Winds: from the E (90 degrees) at 12 MPH (10 knots; 5.1 m/s)
Visibility: 2.49 miles (4.01 km)
Ceiling: 10000 feet AGL
Clouds: scattered clouds at 4000 feet AGL
broken clouds at 10000 feet AGL
Weather: FU  (smoke)

METAR text: OPLA 151425Z 12008KT 4000 FU SCT040 BKN100 28/23 Q0997 RMK QFE971 RMK A29.43
Conditions at: OPLA (LAHORE (CIV/MIL), PK) observed 1425 UTC 15 July 2019
Temperature: 28.0°C (82°F)
Dewpoint: 23.0°C (73°F) [RH = 74%]
Pressure (altimeter): 29.44 inches Hg (997.0 mb)
Winds: from the ESE (120 degrees) at 9 MPH (8 knots; 4.1 m/s)
Visibility: 2.49 miles (4.01 km)
Ceiling: 10000 feet AGL
Clouds: scattered clouds at 4000 feet AGL
broken clouds at 10000 feet AGL
Weather: FU  (smoke)

METAR text: OPLA 151355Z 10008KT 4000 FU SCT040 BKN100 28/23 Q0996 TEMPO 33020G45KT 2000 TSRA FEW030CB RMK QFE971 RMK A29.43
Conditions at: OPLA (LAHORE (CIV/MIL), PK) observed 1355 UTC 15 July 2019
Temperature: 28.0°C (82°F)
Dewpoint: 23.0°C (73°F) [RH = 74%]
Pressure (altimeter): 29.41 inches Hg (996.0 mb)
Winds: from the E (100 degrees) at 9 MPH (8 knots; 4.1 m/s)
Visibility: 2.49 miles (4.01 km)
Ceiling: 10000 feet AGL
Clouds: scattered clouds at 4000 feet AGL
broken clouds at 10000 feet AGL
Weather: FU  (smoke)

METAR text: OPLA 151325Z 13010KT 4000 FU SCT040 SCT100 28/23 Q0996 RMK QFE971 RMK A29.42
Conditions at: OPLA (LAHORE (CIV/MIL), PK) observed 1325 UTC 15 July 2019
Temperature: 28.0°C (82°F)
Dewpoint: 23.0°C (73°F) [RH = 74%]
Pressure (altimeter): 29.41 inches Hg (996.0 mb)
Winds: from the SE (130 degrees) at 12 MPH (10 knots; 5.1 m/s)
Visibility: 2.49 miles (4.01 km)
Ceiling: at least 12,000 feet AGL
Clouds: scattered clouds at 4000 feet AGL
scattered clouds at 10000 feet AGL
Weather: FU  (smoke)

METAR text: OPLA 151255Z 13008KT 4000 FU SCT040 BKN100 29/23 Q0996 NOSIG RMK QFE970 RMK A29.42
Conditions at: OPLA (LAHORE (CIV/MIL), PK) observed 1255 UTC 15 July 2019
Temperature: 29.0°C (84°F)
Dewpoint: 23.0°C (73°F) [RH = 70%]
Pressure (altimeter): 29.41 inches Hg (996.0 mb)
Winds: from the SE (130 degrees) at 9 MPH (8 knots; 4.1 m/s)
Visibility: 2.49 miles (4.01 km)
Ceiling: 10000 feet AGL
Clouds: scattered clouds at 4000 feet AGL
broken clouds at 10000 feet AGL
Weather: FU  (smoke)

METAR text: OPLA 151225Z 12008KT 4000 FU SCT040 BKN100 29/24 Q0996 RMK QFE970 RMK A29.41
Conditions at: OPLA (LAHORE (CIV/MIL), PK) observed 1225 UTC 15 July 2019
Temperature: 29.0°C (84°F)
Dewpoint: 24.0°C (75°F) [RH = 74%]
Pressure (altimeter): 29.41 inches Hg (996.0 mb)
Winds: from the ESE (120 degrees) at 9 MPH (8 knots; 4.1 m/s)
Visibility: 2.49 miles (4.01 km)
Ceiling: 10000 feet AGL
Clouds: scattered clouds at 4000 feet AGL
broken clouds at 10000 feet AGL
Weather: FU  (smoke)

METAR text: OPLA 151155Z 14008KT 5000 FU SCT040 BKN100 30/24 Q0996 BECMG 4000 RMK QFE970 RMK A29.41
Conditions at: OPLA (LAHORE (CIV/MIL), PK) observed 1155 UTC 15 July 2019
Temperature: 30.0°C (86°F)
Dewpoint: 24.0°C (75°F) [RH = 70%]
Pressure (altimeter): 29.41 inches Hg (996.0 mb)
Winds: from the SE (140 degrees) at 9 MPH (8 knots; 4.1 m/s)
Visibility: 3 miles ( 5 km)
Ceiling: 10000 feet AGL
Clouds: scattered clouds at 4000 feet AGL
broken clouds at 10000 feet AGL
Weather: FU  (smoke)

METAR text: OPLA 151125Z 14010KT 5000 FU SCT040 BKN100 30/24 Q0996 RMK QFE970 RMK A29.42
Conditions at: OPLA (LAHORE (CIV/MIL), PK) observed 1125 UTC 15 July 2019
Temperature: 30.0°C (86°F)
Dewpoint: 24.0°C (75°F) [RH = 70%]
Pressure (altimeter): 29.41 inches Hg (996.0 mb)
Winds: from the SE (140 degrees) at 12 MPH (10 knots; 5.1 m/s)
Visibility: 3 miles ( 5 km)
Ceiling: 10000 feet AGL
Clouds: scattered clouds at 4000 feet AGL
broken clouds at 10000 feet AGL
Weather: FU  (smoke)

METAR text: OPLA 151055Z 14010KT 5000 FU SCT040 BKN100 30/24 Q0996 NOSIG RMK QFE971 RMK A29.42
Conditions at: OPLA (LAHORE (CIV/MIL), PK) observed 1055 UTC 15 July 2019
Temperature: 30.0°C (86°F)
Dewpoint: 24.0°C (75°F) [RH = 70%]
Pressure (altimeter): 29.41 inches Hg (996.0 mb)
Winds: from the SE (140 degrees) at 12 MPH (10 knots; 5.1 m/s)
Visibility: 3 miles ( 5 km)
Ceiling: 10000 feet AGL
Clouds: scattered clouds at 4000 feet AGL
broken clouds at 10000 feet AGL
Weather: FU  (smoke)

METAR text: OPLA 151025Z 15008KT 5000 FU SCT040 BKN100 30/24 Q0996 RMK QFE971 RMK A29.42
Conditions at: OPLA (LAHORE (CIV/MIL), PK) observed 1025 UTC 15 July 2019
Temperature: 30.0°C (86°F)
Dewpoint: 24.0°C (75°F) [RH = 70%]
Pressure (altimeter): 29.41 inches Hg (996.0 mb)
Winds: from the SSE (150 degrees) at 9 MPH (8 knots; 4.1 m/s)
Visibility: 3 miles ( 5 km)
Ceiling: 10000 feet AGL
Clouds: scattered clouds at 4000 feet AGL
broken clouds at 10000 feet AGL
Weather: FU  (smoke)

METAR text: OPLA 150955Z 14010KT 5000 FU SCT040 BKN100 30/24 Q0997 NOSIG RMK QFE971 RMK A29.42
Conditions at: OPLA (LAHORE (CIV/MIL), PK) observed 0955 UTC 15 July 2019
Temperature: 30.0°C (86°F)
Dewpoint: 24.0°C (75°F) [RH = 70%]
Pressure (altimeter): 29.44 inches Hg (997.0 mb)
Winds: from the SE (140 degrees) at 12 MPH (10 knots; 5.1 m/s)
Visibility: 3 miles ( 5 km)
Ceiling: 10000 feet AGL
Clouds: scattered clouds at 4000 feet AGL
broken clouds at 10000 feet AGL
Weather: FU  (smoke)

METAR text: OPLA 150925Z 16012KT 5000 FU SCT040 BKN100 29/24 Q0997 RMK QFE971 RMK A29.44
Conditions at: OPLA (LAHORE (CIV/MIL), PK) observed 0925 UTC 15 July 2019
Temperature: 29.0°C (84°F)
Dewpoint: 24.0°C (75°F) [RH = 74%]
Pressure (altimeter): 29.44 inches Hg (997.0 mb)
Winds: from the SSE (160 degrees) at 14 MPH (12 knots; 6.2 m/s)
Visibility: 3 miles ( 5 km)
Ceiling: 10000 feet AGL
Clouds: scattered clouds at 4000 feet AGL
broken clouds at 10000 feet AGL
Weather: FU  (smoke)

METAR text: OPLA 150855Z 13012KT 5000 FU SCT040 BKN100 29/24 Q0997 TEMPO 32020G40KT 1500 TSRA FEW030CB RMK QFE971 RMK A29.44
Conditions at: OPLA (LAHORE (CIV/MIL), PK) observed 0855 UTC 15 July 2019
Temperature: 29.0°C (84°F)
Dewpoint: 24.0°C (75°F) [RH = 74%]
Pressure (altimeter): 29.44 inches Hg (997.0 mb)
Winds: from the SE (130 degrees) at 14 MPH (12 knots; 6.2 m/s)
Visibility: 3 miles ( 5 km)
Ceiling: 10000 feet AGL
Clouds: scattered clouds at 4000 feet AGL
broken clouds at 10000 feet AGL
Weather: FU  (smoke)

METAR text: OPLA 150825Z 09012KT 5000 FU SCT040 SCT100 29/23 Q0997 RMK QFE972 RMK A29.45
Conditions at: OPLA (LAHORE (CIV/MIL), PK) observed 0825 UTC 15 July 2019
Temperature: 29.0°C (84°F)
Dewpoint: 23.0°C (73°F) [RH = 70%]
Pressure (altimeter): 29.44 inches Hg (997.0 mb)
Winds: from the E (90 degrees) at 14 MPH (12 knots; 6.2 m/s)
Visibility: 3 miles ( 5 km)
Ceiling: at least 12,000 feet AGL
Clouds: scattered clouds at 4000 feet AGL
scattered clouds at 10000 feet AGL
Weather: FU  (smoke)

METAR text: OPLA 150755Z 12010KT 5000 FU SCT040 BKN100 29/23 Q0997 TEMPO 32020G40KT 1500 TSRA FEW030CB RMK QFE972 RMK A29.45
Conditions at: OPLA (LAHORE (CIV/MIL), PK) observed 0755 UTC 15 July 2019
Temperature: 29.0°C (84°F)
Dewpoint: 23.0°C (73°F) [RH = 70%]
Pressure (altimeter): 29.44 inches Hg (997.0 mb)
Winds: from the ESE (120 degrees) at 12 MPH (10 knots; 5.1 m/s)
Visibility: 3 miles ( 5 km)
Ceiling: 10000 feet AGL
Clouds: scattered clouds at 4000 feet AGL
broken clouds at 10000 feet AGL
Weather: FU  (smoke)

METAR text: OPLA 150725Z 12012KT 6000 SCT040 SCT100 29/22 Q0997 RMK QFE972 RMK A29.46
Conditions at: OPLA (LAHORE (CIV/MIL), PK) observed 0725 UTC 15 July 2019
Temperature: 29.0°C (84°F)
Dewpoint: 22.0°C (72°F) [RH = 66%]
Pressure (altimeter): 29.44 inches Hg (997.0 mb)
Winds: from the ESE (120 degrees) at 14 MPH (12 knots; 6.2 m/s)
Visibility: 4 miles ( 6 km)
Ceiling: at least 12,000 feet AGL
Clouds: scattered clouds at 4000 feet AGL
scattered clouds at 10000 feet AGL
Weather: no significant weather observed at this time

METAR text: OPLA 150655Z 13013KT 6000 FEW040 SCT100 28/22 Q0997 NOSIG RMK QFE972 RMK A29.46
Conditions at: OPLA (LAHORE (CIV/MIL), PK) observed 0655 UTC 15 July 2019
Temperature: 28.0°C (82°F)
Dewpoint: 22.0°C (72°F) [RH = 70%]
Pressure (altimeter): 29.44 inches Hg (997.0 mb)
Winds: from the SE (130 degrees) at 15 MPH (13 knots; 6.7 m/s)
Visibility: 4 miles ( 6 km)
Ceiling: at least 12,000 feet AGL
Clouds: few clouds at 4000 feet AGL
scattered clouds at 10000 feet AGL
Weather: no significant weather observed at this time

METAR text: OPLA 150625Z 09012KT 5000 FU FEW040 SCT100 28/24 Q0997 RMK QFE972 RMK A29.45
Conditions at: OPLA (LAHORE (CIV/MIL), PK) observed 0625 UTC 15 July 2019
Temperature: 28.0°C (82°F)
Dewpoint: 24.0°C (75°F) [RH = 79%]
Pressure (altimeter): 29.44 inches Hg (997.0 mb)
Winds: from the E (90 degrees) at 14 MPH (12 knots; 6.2 m/s)
Visibility: 3 miles ( 5 km)
Ceiling: at least 12,000 feet AGL
Clouds: few clouds at 4000 feet AGL
scattered clouds at 10000 feet AGL
Weather: FU  (smoke)

METAR text: OPLA 150525Z 12010KT 4000 FU SCT040 SCT100 26/24 Q0997 RMK QFE971 RMK A29.43
Conditions at: OPLA (LAHORE (CIV/MIL), PK) observed 0525 UTC 15 July 2019
Temperature: 26.0°C (79°F)
Dewpoint: 24.0°C (75°F) [RH = 89%]
Pressure (altimeter): 29.44 inches Hg (997.0 mb)
Winds: from the ESE (120 degrees) at 12 MPH (10 knots; 5.1 m/s)
Visibility: 2.49 miles (4.01 km)
Ceiling: at least 12,000 feet AGL
Clouds: scattered clouds at 4000 feet AGL
scattered clouds at 10000 feet AGL
Weather: FU  (smoke)

METAR text: OPLA 150455Z 03008KT 4000 FU SCT040 BKN100 25/24 Q0996 RETSRA TEMPO 32020G40KT 1000 TSRA FEW030CB RMK QFE971 RMK A29.43
Conditions at: OPLA (LAHORE (CIV/MIL), PK) observed 0455 UTC 15 July 2019
Temperature: 25.0°C (77°F)
Dewpoint: 24.0°C (75°F) [RH = 94%]
Pressure (altimeter): 29.41 inches Hg (996.0 mb)
Winds: from the NNE (30 degrees) at 9 MPH (8 knots; 4.1 m/s)
Visibility: 2.49 miles (4.01 km)
Ceiling: 10000 feet AGL
Clouds: scattered clouds at 4000 feet AGL
broken clouds at 10000 feet AGL
Weather: FU  (smoke)

METAR text: OPLA 150420Z 09010KT 3000 TSRA FEW030CB SCT040 OVC100 24/23 Q0997 RMK QFE972 RMK A29.47
Conditions at: OPLA (LAHORE (CIV/MIL), PK) observed 0420 UTC 15 July 2019
Temperature: 24.0°C (75°F)
Dewpoint: 23.0°C (73°F) [RH = 94%]
Pressure (altimeter): 29.44 inches Hg (997.0 mb)
Winds: from the E (90 degrees) at 12 MPH (10 knots; 5.1 m/s)
Visibility: 1.86 miles (2.99 km)
Ceiling: 10000 feet AGL
Clouds: few clouds at 3000 feet AGL
scattered clouds at 4000 feet AGL
overcast cloud deck at 10000 feet AGL
Weather: TSRA  (rain associated with thunderstorm(s))

METAR text: OPLA 150355Z 09010KT 2000 TSRA FEW030CB SCT040 OVC100 24/23 Q0997 TEMPO 32020G40KT 1000 TSRA FEW030CB RMK QFE972 RMK A29.47
Conditions at: OPLA (LAHORE (CIV/MIL), PK) observed 0355 UTC 15 July 2019
Temperature: 24.0°C (75°F)
Dewpoint: 23.0°C (73°F) [RH = 94%]
Pressure (altimeter): 29.44 inches Hg (997.0 mb)
Winds: from the E (90 degrees) at 12 MPH (10 knots; 5.1 m/s)
Visibility: 1.24 miles (2.00 km)
Ceiling: 10000 feet AGL
Clouds: few clouds at 3000 feet AGL
scattered clouds at 4000 feet AGL
overcast cloud deck at 10000 feet AGL
Weather: TSRA  (rain associated with thunderstorm(s))

METAR text: OPLA 150255Z 35011KT 2000 TSRA FEW030CB BKN040 OVC100 25/24 Q0998 TEMPO 03015G35KT 1500 TSRA FEW030CB RMK QFE973 RMK A29.47
Conditions at: OPLA (LAHORE (CIV/MIL), PK) observed 0255 UTC 15 July 2019
Temperature: 25.0°C (77°F)
Dewpoint: 24.0°C (75°F) [RH = 94%]
Pressure (altimeter): 29.47 inches Hg (998.0 mb)
Winds: from the N (350 degrees) at 13 MPH (11 knots; 5.7 m/s)
Visibility: 1.24 miles (2.00 km)
Ceiling: 4000 feet AGL
Clouds: few clouds at 3000 feet AGL
broken clouds at 4000 feet AGL
overcast cloud deck at 10000 feet AGL
Weather: TSRA  (rain associated with thunderstorm(s))

METAR text: OPLA 150225Z 09013KT 3000 TSRA FEW030CB BKN040 OVC100 25/23 Q0996 RMK QFE971 RMK A29.43
Conditions at: OPLA (LAHORE (CIV/MIL), PK) observed 0225 UTC 15 July 2019
Temperature: 25.0°C (77°F)
Dewpoint: 23.0°C (73°F) [RH = 89%]
Pressure (altimeter): 29.41 inches Hg (996.0 mb)
Winds: from the E (90 degrees) at 15 MPH (13 knots; 6.7 m/s)
Visibility: 1.86 miles (2.99 km)
Ceiling: 4000 feet AGL
Clouds: few clouds at 3000 feet AGL
broken clouds at 4000 feet AGL
overcast cloud deck at 10000 feet AGL
Weather: TSRA  (rain associated with thunderstorm(s))

METAR text: OPLA 150155Z 09012KT 3000 TSRA FEW030CB BKN040 OVC100 25/23 Q0996 TEMPO 03020G35KT 2000 TSRA FEW030CB RMK QFE971 RMK A29.43
Conditions at: OPLA (LAHORE (CIV/MIL), PK) observed 0155 UTC 15 July 2019
Temperature: 25.0°C (77°F)
Dewpoint: 23.0°C (73°F) [RH = 89%]
Pressure (altimeter): 29.41 inches Hg (996.0 mb)
Winds: from the E (90 degrees) at 14 MPH (12 knots; 6.2 m/s)
Visibility: 1.86 miles (2.99 km)
Ceiling: 4000 feet AGL
Clouds: few clouds at 3000 feet AGL
broken clouds at 4000 feet AGL
overcast cloud deck at 10000 feet AGL
Weather: TSRA  (rain associated with thunderstorm(s))

METAR text: OPLA 150055Z 34015KT 2000 TSRA FEW030CB BKN040 OVC100 23/23 Q0996 TEMPO 32015G40KT 1500 TSRA FEW030CB RMK QFE971 RMK A29.41
Conditions at: OPLA (LAHORE (CIV/MIL), PK) observed 0055 UTC 15 July 2019
Temperature: 23.0°C (73°F)
Dewpoint: 23.0°C (73°F) [RH = 100%]
Pressure (altimeter): 29.41 inches Hg (996.0 mb)
Winds: from the NNW (340 degrees) at 17 MPH (15 knots; 7.7 m/s)
Visibility: 1.24 miles (2.00 km)
Ceiling: 4000 feet AGL
Clouds: few clouds at 3000 feet AGL
broken clouds at 4000 feet AGL
overcast cloud deck at 10000 feet AGL
Weather: TSRA  (rain associated with thunderstorm(s))

METAR text: OPLA 150025Z 12012KT 4000 FU SCT040 BKN100 23/20 Q0995 RMK QFE970 RMK A29.39
Conditions at: OPLA (LAHORE (CIV/MIL), PK) observed 0025 UTC 15 July 2019
Temperature: 23.0°C (73°F)
Dewpoint: 20.0°C (68°F) [RH = 83%]
Pressure (altimeter): 29.38 inches Hg (995.0 mb)
Winds: from the ESE (120 degrees) at 14 MPH (12 knots; 6.2 m/s)
Visibility: 2.49 miles (4.01 km)
Ceiling: 10000 feet AGL
Clouds: scattered clouds at 4000 feet AGL
broken clouds at 10000 feet AGL
Weather: FU  (smoke)

Forecast for: OPLA (LAHORE (CIV/MIL), PK)
Text: TAF OPLA 160945Z 1612/1718 13008KT 3000 SCT040 BKN00 TX30/1710 TN22/1700
Forecast period: 1200 UTC 16 July 2019 to 1800 UTC 17 July 2019
Forecast type: FROM: standard forecast or significant change
Winds: from the SE (130 degrees) at 9 MPH (8 knots; 4.1 m/s)
Visibility: 1.86 miles (2.99 km)
Ceiling: at least 12,000 feet AGL
Clouds: scattered clouds at 4000 feet AGL
Weather: no significant weather forecast for this period
Text: TEMPO 1612/1616 34015G35KT 1000 TSRA FEW030CB SCT040 OVC100
Forecast period: 1200 to 1600 UTC 16 July 2019
Forecast type: TEMPORARY: The following changes expected for less than half the time period
Winds: from the NNW (340 degrees) at 17 MPH (15 knots; 7.7 m/s)
gusting to 40 MPH (35 knots; 18.0 m/s)
Visibility: 0.62 miles (1.00 km)
Ceiling: 10000 feet AGL
Clouds: few clouds at 3000 feet AGL
scattered clouds at 4000 feet AGL
overcast cloud deck at 10000 feet AGL
Weather: TSRA  (rain associated with thunderstorm(s))
Text: TEMPO 1622/1704 34020G40KT 1000 TSRA FEW030CB SCT040 OVC100
Forecast period: 2200 UTC 16 July 2019 to 0400 UTC 17 July 2019
Forecast type: TEMPORARY: The following changes expected for less than half the time period
Winds: from the NNW (340 degrees) at 23 MPH (20 knots; 10.3 m/s)
gusting to 46 MPH (40 knots; 20.6 m/s)
Visibility: 0.62 miles (1.00 km)
Ceiling: 10000 feet AGL
Clouds: few clouds at 3000 feet AGL
scattered clouds at 4000 feet AGL
overcast cloud deck at 10000 feet AGL
Weather: TSRA  (rain associated with thunderstorm(s))